Time;durP1;ratioP1;P1;durP2;ratioP2;P2;SDS_P1;SDS_P2;PMS_P1;PMS_P2;Temp;Humidity;BMP_temperature;BMP_pressure;BME280_temperature;BME280_humidity;BME280_pressure;Samples;Min_cycle;Max_cycle;Signal;HPM_P1;HPM_P2
2023/07/15 00:01:23;;;;;;;5.00;2.00;;;18.70;67.80;;;;;;5038713;28;20033;-86
2023/07/15 00:03:50;;;;;;;4.85;1.63;;;18.70;67.80;;;;;;5036612;28;20524;-86
2023/07/15 00:06:17;;;;;;;4.32;1.75;;;18.70;67.80;;;;;;5030096;28;20050;-86
2023/07/15 00:08:46;;;;;;;6.43;2.72;;;18.70;67.90;;;;;;5025301;28;20036;-85
2023/07/15 00:11:22;;;;;;;3.75;1.25;;;18.70;67.90;;;;;;5037066;28;20079;-86
2023/07/15 00:13:53;;;;;;;4.43;1.70;;;18.70;68.00;;;;;;5028385;28;20575;-85
2023/07/15 00:16:20;;;;;;;4.15;1.58;;;18.70;68.00;;;;;;5037585;28;20048;-85
2023/07/15 00:18:46;;;;;;;6.38;3.00;;;18.60;67.80;;;;;;5054709;28;20029;-85
2023/07/15 00:21:20;;;;;;;5.43;1.77;;;18.70;68.00;;;;;;5040531;28;20063;-85
2023/07/15 00:23:57;;;;;;;7.43;1.75;;;18.60;67.90;;;;;;5037594;28;20143;-86
2023/07/15 00:26:34;;;;;;;3.33;1.83;;;18.60;68.00;;;;;;5043071;28;20083;-86
2023/07/15 00:29:04;;;;;;;8.38;2.50;;;18.50;67.90;;;;;;5039439;28;20040;-85
2023/07/15 00:31:35;;;;;;;7.30;1.98;;;18.50;67.90;;;;;;5058031;28;20097;-85
2023/07/15 00:34:03;;;;;;;5.30;2.22;;;18.50;67.90;;;;;;5034651;28;20041;-86
2023/07/15 00:36:31;;;;;;;6.85;2.50;;;18.50;68.00;;;;;;5035713;28;20179;-86
2023/07/15 00:38:57;;;;;;;6.22;2.67;;;18.40;67.90;;;;;;5040442;28;20029;-86
2023/07/15 00:41:28;;;;;;;4.97;2.33;;;18.40;68.00;;;;;;5055023;28;20041;-85
2023/07/15 00:44:01;;;;;;;6.40;1.83;;;18.40;68.00;;;;;;5042189;28;20036;-85
2023/07/15 00:46:47;;;;;;;9.32;2.72;;;18.40;68.10;;;;;;5021026;28;20021;-84
2023/07/15 00:49:21;;;;;;;5.95;2.10;;;18.40;68.20;;;;;;5046664;28;20037;-84
2023/07/15 00:51:57;;;;;;;8.65;2.72;;;18.40;68.20;;;;;;5040270;28;20041;-83
2023/07/15 00:54:27;;;;;;;4.68;1.85;;;18.30;68.10;;;;;;5024306;28;20043;-83
2023/07/15 00:57:04;;;;;;;8.40;2.10;;;18.30;68.10;;;;;;5043477;28;20033;-84
2023/07/15 00:59:35;;;;;;;7.45;2.15;;;18.30;68.20;;;;;;5038960;28;20029;-84
2023/07/15 01:02:02;;;;;;;5.75;2.00;;;18.30;68.20;;;;;;5027773;28;20039;-84
2023/07/15 01:04:29;;;;;;;7.43;2.50;;;18.30;68.30;;;;;;5046415;28;20139;-85
2023/07/15 01:06:58;;;;;;;9.57;3.13;;;18.30;68.40;;;;;;5034012;28;20036;-81
2023/07/15 01:09:30;;;;;;;8.88;1.70;;;18.30;68.50;;;;;;5045649;28;20032;-87
2023/07/15 01:11:57;;;;;;;4.78;2.40;;;18.30;68.50;;;;;;5027599;28;20032;-84
2023/07/15 01:14:23;;;;;;;4.97;2.30;;;18.30;68.60;;;;;;5059043;28;20035;-87
2023/07/15 01:16:52;;;;;;;8.10;2.92;;;18.30;68.60;;;;;;5017400;28;20052;-88
2023/07/15 01:19:22;;;;;;;6.32;2.47;;;18.30;68.70;;;;;;5025253;28;20029;-88
2023/07/15 01:21:50;;;;;;;8.45;2.33;;;18.30;68.80;;;;;;5044849;28;20101;-87
2023/07/15 01:24:21;;;;;;;6.80;2.47;;;18.30;68.80;;;;;;5042338;28;20040;-88
2023/07/15 01:26:55;;;;;;;6.65;2.10;;;18.30;68.90;;;;;;5048681;28;20033;-88
2023/07/15 01:29:21;;;;;;;5.90;2.03;;;18.30;69.00;;;;;;5033813;28;20041;-87
2023/07/15 01:31:47;;;;;;;5.88;1.88;;;18.30;68.90;;;;;;5034688;28;20144;-87
2023/07/15 01:34:14;;;;;;;5.65;2.20;;;18.30;69.00;;;;;;5021047;28;20108;-88
2023/07/15 01:36:41;;;;;;;5.65;1.83;;;18.30;69.10;;;;;;5043557;28;20128;-87
2023/07/15 01:39:09;;;;;;;8.57;2.70;;;18.30;69.10;;;;;;5042665;28;20119;-87
2023/07/15 01:41:36;;;;;;;8.60;2.72;;;18.30;69.10;;;;;;5045480;28;20064;-86
2023/07/15 01:44:04;;;;;;;7.88;2.58;;;18.30;69.20;;;;;;5042389;28;20075;-87
2023/07/15 01:46:30;;;;;;;8.18;2.20;;;18.30;69.20;;;;;;5035796;28;20116;-88
2023/07/15 01:49:02;;;;;;;5.20;2.13;;;18.30;69.30;;;;;;5030817;28;20036;-88
2023/07/15 01:51:28;;;;;;;10.98;3.63;;;18.30;69.40;;;;;;5028518;28;20032;-89
2023/07/15 01:53:58;;;;;;;8.77;1.98;;;18.30;69.40;;;;;;5040886;28;20049;-89
2023/07/15 01:56:24;;;;;;;9.20;2.65;;;18.30;69.50;;;;;;5035028;28;20052;-88
2023/07/15 01:58:51;;;;;;;5.85;2.03;;;18.30;69.50;;;;;;5030959;28;20064;-88
2023/07/15 02:01:17;;;;;;;9.00;3.33;;;18.30;69.60;;;;;;5039731;28;20036;-88
2023/07/15 02:03:46;;;;;;;7.13;3.33;;;18.30;69.60;;;;;;5024155;28;20491;-90
2023/07/15 02:06:14;;;;;;;5.88;2.50;;;18.30;69.70;;;;;;5038898;28;20056;-88
2023/07/15 02:08:41;;;;;;;8.90;2.90;;;18.30;69.70;;;;;;5039051;28;20045;-89
2023/07/15 02:11:07;;;;;;;5.82;3.10;;;18.30;69.80;;;;;;5025305;28;20127;-89
2023/07/15 02:13:34;;;;;;;5.72;1.92;;;18.30;69.80;;;;;;5029788;28;20020;-88
2023/07/15 02:16:03;;;;;;;6.60;2.38;;;18.30;69.80;;;;;;5025559;28;20099;-90
2023/07/15 02:18:30;;;;;;;4.63;1.95;;;18.30;69.90;;;;;;5031705;28;20490;-88
2023/07/15 02:20:56;;;;;;;7.57;2.30;;;18.30;69.90;;;;;;5023856;28;20028;-87
2023/07/15 02:23:33;;;;;;;5.93;2.00;;;18.30;69.90;;;;;;5044199;28;20039;-89
2023/07/15 02:26:03;;;;;;;9.13;2.92;;;18.30;69.90;;;;;;5045191;28;20107;-89
2023/07/15 02:28:35;;;;;;;5.70;2.20;;;18.20;69.80;;;;;;5032028;28;20029;-89
2023/07/15 02:31:02;;;;;;;6.05;2.80;;;18.20;69.80;;;;;;5051649;28;20183;-88
2023/07/15 02:33:31;;;;;;;9.98;2.80;;;18.30;70.00;;;;;;5059059;28;20091;-89
2023/07/15 02:35:58;;;;;;;6.32;2.10;;;18.20;69.90;;;;;;5018073;28;20033;-89
2023/07/15 02:38:24;;;;;;;8.20;2.33;;;18.20;69.90;;;;;;5047614;28;20485;-88
2023/07/15 02:40:51;;;;;;;5.75;2.33;;;18.30;70.10;;;;;;5052592;28;20059;-86
2023/07/15 02:43:19;;;;;;;7.22;3.33;;;18.20;70.00;;;;;;5043646;28;20033;-87
2023/07/15 02:45:48;;;;;;;5.97;2.30;;;18.20;70.00;;;;;;5035620;28;20024;-88
2023/07/15 02:48:14;;;;;;;6.38;2.28;;;18.20;70.10;;;;;;5047468;28;20076;-87
2023/07/15 02:50:40;;;;;;;5.35;2.13;;;18.20;70.10;;;;;;5029984;28;20036;-88
2023/07/15 02:53:06;;;;;;;5.15;2.65;;;18.20;70.10;;;;;;5048086;28;20070;-88
2023/07/15 02:55:32;;;;;;;7.30;2.40;;;18.20;70.30;;;;;;5040312;28;20056;-88
2023/07/15 02:57:59;;;;;;;7.47;1.98;;;18.10;70.10;;;;;;5020207;28;20037;-90
2023/07/15 03:00:26;;;;;;;7.20;2.13;;;18.10;70.10;;;;;;5048962;28;20025;-90
2023/07/15 03:02:52;;;;;;;6.25;1.95;;;18.10;70.70;;;;;;5022940;28;20152;-89
2023/07/15 03:05:18;;;;;;;6.53;2.85;;;18.10;70.20;;;;;;5030876;28;20111;-90
2023/07/15 03:07:48;;;;;;;6.13;2.38;;;18.10;70.30;;;;;;5034738;28;20044;-87
2023/07/15 03:10:15;;;;;;;3.95;1.98;;;18.10;70.30;;;;;;5040290;28;20021;-89
2023/07/15 03:12:42;;;;;;;4.75;1.80;;;18.10;70.40;;;;;;5046783;28;20029;-89
2023/07/15 03:15:09;;;;;;;7.22;2.95;;;18.10;70.40;;;;;;5044622;28;20045;-92
2023/07/15 03:17:36;;;;;;;5.85;2.20;;;18.00;70.30;;;;;;5025068;28;20405;-86
2023/07/15 03:20:19;;;;;;;6.05;1.88;;;18.00;70.30;;;;;;5048321;28;20130;-90
2023/07/15 03:22:46;;;;;;;7.75;2.15;;;18.10;70.50;;;;;;5030392;28;20060;-86
2023/07/15 03:25:13;;;;;;;6.63;2.55;;;18.00;70.30;;;;;;5033195;28;20037;-85
2023/07/15 03:27:39;;;;;;;6.88;3.75;;;18.00;70.90;;;;;;5046564;28;20453;-84
2023/07/15 03:30:10;;;;;;;5.43;2.08;;;18.00;70.40;;;;;;5040977;28;20571;-86
2023/07/15 03:32:37;;;;;;;5.75;2.13;;;18.00;70.40;;;;;;5044442;28;20061;-86
2023/07/15 03:35:10;;;;;;;4.40;2.00;;;18.00;70.40;;;;;;5034009;28;20056;-85
2023/07/15 03:37:41;;;;;;;6.20;2.42;;;18.10;70.60;;;;;;5034768;28;20072;-85
2023/07/15 03:40:10;;;;;;;5.40;1.80;;;18.00;70.40;;;;;;5048546;28;20588;-85
2023/07/15 03:42:36;;;;;;;8.02;2.75;;;18.00;70.40;;;;;;5029691;28;20330;-84
2023/07/15 03:45:04;;;;;;;7.93;2.58;;;18.00;70.50;;;;;;5041248;28;20511;-86
2023/07/15 03:47:30;;;;;;;7.25;3.25;;;18.10;70.70;;;;;;5045265;28;20146;-84
2023/07/15 03:49:56;;;;;;;8.93;3.22;;;18.00;70.50;;;;;;5029628;28;20091;-85
2023/07/15 03:52:22;;;;;;;7.93;2.53;;;18.00;70.60;;;;;;5035349;28;20563;-83
2023/07/15 03:54:48;;;;;;;6.53;2.90;;;18.00;70.60;;;;;;5048191;28;20246;-84
2023/07/15 03:57:15;;;;;;;6.22;2.40;;;18.00;70.60;;;;;;5052444;28;20066;-84
2023/07/15 03:59:41;;;;;;;8.52;3.22;;;18.00;70.70;;;;;;5032206;28;20083;-84
2023/07/15 04:02:07;;;;;;;8.05;3.35;;;18.00;70.70;;;;;;5057101;28;20237;-84
2023/07/15 04:04:33;;;;;;;7.53;2.80;;;18.00;70.70;;;;;;5062197;28;20119;-84
2023/07/15 04:06:59;;;;;;;9.82;2.75;;;17.90;70.50;;;;;;5061645;28;20033;-84
2023/07/15 04:09:25;;;;;;;7.78;2.70;;;17.90;70.60;;;;;;5054696;28;20126;-85
2023/07/15 04:11:51;;;;;;;7.03;2.92;;;17.90;70.60;;;;;;5045422;28;20111;-84
2023/07/15 04:14:17;;;;;;;7.47;2.50;;;17.90;70.60;;;;;;5048071;28;20115;-85
2023/07/15 04:16:44;;;;;;;7.60;2.22;;;17.90;70.70;;;;;;5040272;28;20041;-83
2023/07/15 04:19:10;;;;;;;7.90;2.25;;;17.90;70.70;;;;;;5034732;28;20070;-85
2023/07/15 04:21:36;;;;;;;10.82;3.58;;;17.90;70.70;;;;;;5056703;28;20086;-84
2023/07/15 04:24:06;;;;;;;8.30;2.95;;;17.90;70.70;;;;;;5030121;28;20032;-85
2023/07/15 04:26:32;;;;;;;10.25;3.33;;;17.90;70.70;;;;;;5015836;28;20060;-84
2023/07/15 04:28:58;;;;;;;10.18;3.63;;;17.80;70.60;;;;;;5036074;28;20063;-84
2023/07/15 04:31:24;;;;;;;9.00;2.65;;;17.80;70.50;;;;;;5038234;28;20036;-84
2023/07/15 04:33:52;;;;;;;10.02;3.28;;;17.90;70.70;;;;;;5054155;28;20127;-86
2023/07/15 04:36:20;;;;;;;8.55;3.13;;;17.90;70.70;;;;;;5028410;28;20044;-85
2023/07/15 04:38:46;;;;;;;8.48;2.63;;;17.90;71.00;;;;;;5043562;28;20028;-85
2023/07/15 04:41:13;;;;;;;8.07;3.25;;;17.90;70.60;;;;;;5054048;28;20063;-84
2023/07/15 04:43:39;;;;;;;6.45;2.58;;;17.90;70.60;;;;;;5036419;28;20129;-85
2023/07/15 04:46:06;;;;;;;5.28;2.25;;;18.00;70.80;;;;;;5016037;28;20043;-84
2023/07/15 04:48:33;;;;;;;6.03;2.90;;;18.00;70.70;;;;;;5039613;28;20269;-85
2023/07/15 04:50:59;;;;;;;8.18;3.17;;;18.00;70.70;;;;;;5036246;28;20029;-84
2023/07/15 04:53:26;;;;;;;10.23;4.07;;;18.00;70.70;;;;;;5049204;28;20029;-84
2023/07/15 04:55:53;;;;;;;6.05;2.15;;;18.00;70.60;;;;;;5049243;28;20107;-84
2023/07/15 04:58:22;;;;;;;9.68;2.92;;;18.00;70.60;;;;;;5057474;28;20101;-85
2023/07/15 05:00:48;;;;;;;10.40;2.60;;;18.00;70.50;;;;;;5060044;28;20020;-85
2023/07/15 05:03:15;;;;;;;11.93;3.60;;;18.00;70.50;;;;;;5041085;28;20342;-86
2023/07/15 05:05:41;;;;;;;9.70;2.92;;;18.10;70.70;;;;;;5036634;28;20028;-86
2023/07/15 05:08:12;;;;;;;5.50;2.47;;;18.10;70.70;;;;;;5053622;28;20245;-85
2023/07/15 05:10:41;;;;;;;9.23;3.42;;;18.10;70.60;;;;;;5035379;28;20081;-85
2023/07/15 05:13:07;;;;;;;8.00;2.70;;;18.10;70.50;;;;;;5049072;28;20048;-85
2023/07/15 05:15:35;;;;;;;7.55;2.80;;;18.10;70.50;;;;;;5052060;28;20068;-85
2023/07/15 05:18:01;;;;;;;5.57;2.35;;;18.10;70.70;;;;;;5043239;28;20051;-86
2023/07/15 05:20:28;;;;;;;11.63;2.97;;;18.20;70.70;;;;;;5053151;28;20025;-84
2023/07/15 05:22:54;;;;;;;7.15;2.40;;;18.20;70.60;;;;;;5047574;28;20723;-83
2023/07/15 05:25:20;;;;;;;6.85;3.33;;;18.20;70.60;;;;;;5045443;28;20036;-86
2023/07/15 05:27:46;;;;;;;8.15;2.95;;;18.10;70.40;;;;;;5041102;28;20048;-85
2023/07/15 05:30:12;;;;;;;8.13;2.83;;;18.20;70.60;;;;;;5058497;28;20436;-84
2023/07/15 05:32:39;;;;;;;5.00;2.45;;;18.10;70.40;;;;;;5030191;28;20072;-86
2023/07/15 05:35:05;;;;;;;6.05;2.65;;;18.10;70.40;;;;;;5053491;28;20373;-84
2023/07/15 05:37:32;;;;;;;9.82;3.58;;;18.20;70.60;;;;;;5037542;28;20520;-85
2023/07/15 05:39:58;;;;;;;5.75;2.45;;;18.10;70.40;;;;;;5043835;28;20103;-84
2023/07/15 05:42:24;;;;;;;12.13;4.20;;;18.20;70.60;;;;;;5031224;28;20496;-84
2023/07/15 05:44:51;;;;;;;7.57;2.38;;;18.20;70.60;;;;;;5042823;28;20052;-84
2023/07/15 05:47:17;;;;;;;7.85;3.10;;;18.20;71.20;;;;;;5041699;28;20509;-86
2023/07/15 05:49:44;;;;;;;10.40;2.60;;;18.20;70.70;;;;;;5044122;28;20037;-86
2023/07/15 05:52:10;;;;;;;9.85;3.33;;;18.20;70.60;;;;;;5038408;28;20029;-87
2023/07/15 05:54:39;;;;;;;8.85;3.45;;;18.10;70.40;;;;;;5036935;28;20407;-87
2023/07/15 05:57:07;;;;;;;5.93;2.10;;;18.20;70.60;;;;;;5044751;28;20055;-86
2023/07/15 05:59:46;;;;;;;6.20;1.92;;;18.20;70.60;;;;;;5035375;28;20393;-86
2023/07/15 06:02:12;;;;;;;8.65;3.35;;;18.30;71.30;;;;;;5032968;28;20032;-86
2023/07/15 06:04:38;;;;;;;6.90;2.75;;;18.30;70.60;;;;;;5021855;28;20206;-89
2023/07/15 06:07:07;;;;;;;5.72;2.20;;;18.40;70.70;;;;;;5029949;28;20071;-84
2023/07/15 06:09:34;;;;;;;6.00;2.03;;;18.50;70.60;;;;;;5026886;28;20075;-84
2023/07/15 06:12:00;;;;;;;5.50;1.92;;;18.70;70.70;;;;;;5048977;28;20044;-84
2023/07/15 06:14:27;;;;;;;6.55;2.20;;;18.90;70.80;;;;;;5044941;28;20128;-83
2023/07/15 06:16:53;;;;;;;25.88;2.55;;;19.10;70.70;;;;;;5044638;28;20033;-83
2023/07/15 06:19:19;;;;;;;4.13;1.77;;;19.30;70.80;;;;;;5044129;28;20102;-82
2023/07/15 06:21:48;;;;;;;6.90;1.98;;;19.50;70.80;;;;;;5046736;28;20037;-83
2023/07/15 06:24:14;;;;;;;5.25;2.58;;;19.70;70.70;;;;;;5026853;28;20029;-83
2023/07/15 06:26:45;;;;;;;4.80;1.88;;;20.00;70.70;;;;;;5034688;28;20029;-81
2023/07/15 06:29:12;;;;;;;7.68;1.90;;;20.30;70.60;;;;;;5041780;28;20036;-90
2023/07/15 06:31:38;;;;;;;7.55;1.90;;;20.70;70.50;;;;;;5012349;28;20426;-80
2023/07/15 06:34:05;;;;;;;3.75;1.55;;;21.00;70.20;;;;;;5040584;28;20319;-81
2023/07/15 06:36:30;;;;;;;3.97;1.90;;;21.40;69.90;;;;;;5024146;28;20514;-82
2023/07/15 06:38:57;;;;;;;9.48;2.13;;;21.90;69.50;;;;;;5043267;28;20047;-86
2023/07/15 06:41:23;;;;;;;6.68;2.15;;;22.40;69.10;;;;;;5039628;28;20373;-83
2023/07/15 06:43:51;;;;;;;4.03;1.55;;;22.80;68.50;;;;;;5033045;28;20044;-87
2023/07/15 06:46:20;;;;;;;8.73;1.95;;;23.10;67.80;;;;;;5029779;28;20054;-85
2023/07/15 06:48:46;;;;;;;6.03;1.73;;;23.20;67.40;;;;;;5031116;28;20096;-91
2023/07/15 06:51:14;;;;;;;6.82;2.00;;;23.30;67.50;;;;;;5039127;28;20463;-93
2023/07/15 06:53:41;;;;;;;8.02;2.15;;;23.60;67.40;;;;;;5036664;28;20032;-92
2023/07/15 06:56:10;;;;;;;6.05;1.95;;;24.00;67.10;;;;;;5038966;28;20041;-91
2023/07/15 06:58:39;;;;;;;5.20;2.47;;;24.40;66.80;;;;;;5031493;28;20025;-93
2023/07/15 07:01:11;;;;;;;4.57;1.40;;;24.80;66.40;;;;;;5034524;28;20029;-85
2023/07/15 07:03:46;;;;;;;9.93;3.38;;;25.20;65.90;;;;;;5032185;28;20067;-89
2023/07/15 07:06:13;;;;;;;6.07;2.00;;;25.70;64.90;;;;;;5040416;28;20032;-86
2023/07/15 07:08:44;;;;;;;5.75;2.30;;;26.10;63.80;;;;;;5036484;28;20548;-90
2023/07/15 07:11:11;;;;;;;5.57;2.17;;;26.50;62.60;;;;;;5035449;28;20032;-90
2023/07/15 07:13:46;;;;;;;6.90;2.47;;;26.90;61.70;;;;;;5035077;28;20037;-89
2023/07/15 07:16:21;;;;;;;3.90;1.48;;;27.30;60.90;;;;;;5052813;28;20087;-91
2023/07/15 07:18:47;;;;;;;10.60;2.15;;;27.70;60.10;;;;;;5035612;28;20115;-88
2023/07/15 07:21:13;;;;;;;8.50;1.73;;;28.00;59.20;;;;;;5046632;28;20037;-91
2023/07/15 07:23:42;;;;;;;6.00;1.65;;;28.50;58.30;;;;;;5018727;28;20472;-87
2023/07/15 07:26:24;;;;;;;3.37;1.57;;;28.80;57.30;;;;;;5047823;28;21308;-88
2023/07/15 07:28:50;;;;;;;6.85;2.03;;;29.20;56.40;;;;;;5056347;28;20032;-87
2023/07/15 07:31:28;;;;;;;6.72;1.85;;;29.50;55.80;;;;;;5046119;28;20045;-87
2023/07/15 07:33:54;;;;;;;8.07;2.75;;;29.50;55.50;;;;;;5038922;28;20421;-89
2023/07/15 07:36:21;;;;;;;10.95;3.90;;;29.50;55.50;;;;;;5043038;28;20078;-90
2023/07/15 07:38:50;;;;;;;16.08;4.68;;;29.60;55.60;;;;;;5039377;28;20541;-94
2023/07/15 07:41:26;;;;;;;15.65;3.65;;;29.50;55.50;;;;;;5034196;28;20087;-87
2023/07/15 07:44:25;;;;;;;6.75;2.30;;;29.50;55.20;;;;;;5035537;28;20428;-89
2023/07/15 07:46:56;;;;;;;10.45;2.95;;;29.70;54.40;;;;;;5033472;28;20059;-88
2023/07/15 07:49:22;;;;;;;6.53;2.70;;;30.00;53.20;;;;;;5035990;28;20033;-89
2023/07/15 07:51:48;;;;;;;6.95;2.30;;;30.20;52.00;;;;;;5038986;28;20047;-89
2023/07/15 07:54:17;;;;;;;6.95;2.50;;;30.50;51.10;;;;;;5044976;28;20236;-89
2023/07/15 07:56:49;;;;;;;7.40;2.60;;;30.60;50.30;;;;;;5019117;28;20053;-86
2023/07/15 07:59:16;;;;;;;7.60;2.70;;;30.80;49.90;;;;;;5046878;28;20025;-89
2023/07/15 08:01:42;;;;;;;6.85;2.25;;;31.00;49.30;;;;;;5015781;28;20215;-88
2023/07/15 08:04:08;;;;;;;8.65;2.45;;;31.00;48.80;;;;;;5030475;28;20032;-88
2023/07/15 08:06:36;;;;;;;9.85;2.75;;;30.90;48.90;;;;;;5036601;28;20086;-88
2023/07/15 08:09:08;;;;;;;6.07;2.28;;;30.60;49.00;;;;;;5045153;28;20450;-87
2023/07/15 08:11:52;;;;;;;7.68;2.72;;;29.90;49.60;;;;;;5025861;28;20043;-90
2023/07/15 08:14:18;;;;;;;6.07;2.30;;;29.30;50.80;;;;;;5009488;28;20036;-92
2023/07/15 08:16:45;;;;;;;10.30;2.63;;;28.90;51.50;;;;;;5019945;28;20415;-95
2023/07/15 08:19:16;;;;;;;6.38;2.30;;;28.60;51.90;;;;;;5027177;28;20531;-96
2023/07/15 08:21:55;;;;;;;6.90;2.05;;;28.30;52.40;;;;;;5043086;28;20040;-91
2023/07/15 08:24:30;;;;;;;5.68;2.45;;;28.00;52.80;;;;;;5046532;28;20626;-93
2023/07/15 08:26:56;;;;;;;6.72;2.35;;;27.80;52.90;;;;;;5028825;28;20123;-93
2023/07/15 08:29:22;;;;;;;3.80;2.00;;;27.70;53.10;;;;;;5031982;28;20032;-92
2023/07/15 08:31:57;;;;;;;5.28;1.98;;;27.50;53.20;;;;;;5028565;28;20442;-88
2023/07/15 08:34:23;;;;;;;7.07;2.28;;;27.30;53.50;;;;;;5044541;28;20120;-85
2023/07/15 08:36:56;;;;;;;8.50;2.08;;;26.90;53.70;;;;;;5049254;28;20024;-96
2023/07/15 08:39:35;;;;;;;6.82;1.83;;;26.50;54.10;;;;;;5067648;28;20032;-95
2023/07/15 08:42:19;;;;;;;8.27;3.28;;;26.10;54.90;;;;;;5047114;28;20707;-93
2023/07/15 08:44:52;;;;;;;5.68;2.10;;;25.80;55.50;;;;;;5044863;28;20037;-94
2023/07/15 08:47:25;;;;;;;5.68;2.20;;;25.60;55.90;;;;;;5034753;28;20033;-93
2023/07/15 08:49:53;;;;;;;5.72;2.22;;;25.40;56.20;;;;;;5040587;28;20028;-92
2023/07/15 08:52:22;;;;;;;5.53;2.45;;;25.30;56.50;;;;;;5025668;28;20040;-90
2023/07/15 08:54:50;;;;;;;6.72;2.25;;;25.10;56.80;;;;;;5019004;28;20078;-85
2023/07/15 08:57:22;;;;;;;11.15;2.97;;;24.90;57.00;;;;;;5049908;28;20496;-85
2023/07/15 08:59:50;;;;;;;8.10;2.55;;;24.80;57.40;;;;;;5048552;28;20493;-84
2023/07/15 09:02:16;;;;;;;7.60;2.03;;;24.70;57.60;;;;;;5047138;28;20270;-84
2023/07/15 09:04:42;;;;;;;9.98;2.55;;;24.60;57.80;;;;;;5029779;28;20024;-84
2023/07/15 09:07:09;;;;;;;9.98;2.80;;;24.50;58.00;;;;;;5046930;28;20048;-85
2023/07/15 09:09:39;;;;;;;6.47;2.38;;;24.40;58.20;;;;;;5040750;28;20529;-81
2023/07/15 09:12:10;;;;;;;4.97;2.03;;;24.50;58.40;;;;;;5056416;28;20032;-82
2023/07/15 09:14:44;;;;;;;7.55;2.83;;;24.70;58.50;;;;;;5044541;28;20040;-82
2023/07/15 09:17:17;;;;;;;6.07;2.95;;;25.00;58.60;;;;;;5044167;28;20051;-81
2023/07/15 09:19:49;;;;;;;6.25;2.17;;;25.30;58.90;;;;;;5041802;28;20044;-81
2023/07/15 09:22:19;;;;;;;15.55;2.75;;;25.60;57.90;;;;;;5051682;28;20500;-82
2023/07/15 09:24:45;;;;;;;9.27;2.95;;;25.80;57.80;;;;;;5033236;28;20082;-88
2023/07/15 09:27:11;;;;;;;7.82;2.47;;;26.00;57.60;;;;;;5031061;28;20105;-80
2023/07/15 09:29:40;;;;;;;7.88;2.70;;;26.20;57.50;;;;;;5040292;28;20036;-87
2023/07/15 09:32:10;;;;;;;6.15;2.65;;;26.30;57.20;;;;;;5020138;28;20048;-80
2023/07/15 09:34:50;;;;;;;5.60;1.77;;;26.50;57.10;;;;;;5032992;28;20068;-85
2023/07/15 09:37:30;;;;;;;5.80;2.05;;;26.80;56.80;;;;;;5043426;28;20044;-84
2023/07/15 09:40:04;;;;;;;5.15;1.75;;;26.90;56.30;;;;;;5037148;28;20032;-83
2023/07/15 09:42:31;;;;;;;4.35;1.60;;;27.10;56.10;;;;;;5024610;28;20175;-83
2023/07/15 09:44:59;;;;;;;3.85;1.40;;;27.10;55.80;;;;;;5026679;28;20036;-82
2023/07/15 09:47:29;;;;;;;4.30;1.90;;;27.20;55.60;;;;;;5033016;28;20530;-83
2023/07/15 09:50:04;;;;;;;7.00;1.85;;;27.20;55.50;;;;;;5024696;28;20072;-83
2023/07/15 09:52:31;;;;;;;3.92;1.92;;;27.30;55.30;;;;;;5028832;28;20567;-84
2023/07/15 09:54:57;;;;;;;4.85;1.75;;;27.40;55.20;;;;;;5033625;28;20385;-83
2023/07/15 09:57:29;;;;;;;4.22;1.88;;;27.50;55.00;;;;;;5035264;28;20037;-83
2023/07/15 09:59:58;;;;;;;4.95;1.50;;;27.60;54.80;;;;;;5038352;28;20063;-83
2023/07/15 10:02:35;;;;;;;5.00;1.88;;;27.70;54.50;;;;;;5020581;28;20521;-80
2023/07/15 10:05:05;;;;;;;7.88;2.17;;;27.80;54.20;;;;;;5052117;28;20390;-81
2023/07/15 10:07:32;;;;;;;6.13;2.63;;;27.90;54.00;;;;;;5044296;28;20184;-84
2023/07/15 10:10:05;;;;;;;4.18;1.90;;;28.10;53.80;;;;;;5023680;28;20067;-84
2023/07/15 10:12:33;;;;;;;5.40;2.65;;;28.20;53.50;;;;;;5043800;28;20086;-83
2023/07/15 10:15:00;;;;;;;3.50;1.10;;;28.30;53.20;;;;;;5032107;28;20040;-80
2023/07/15 10:17:34;;;;;;;4.97;1.75;;;28.50;52.90;;;;;;5035612;28;20222;-80
2023/07/15 10:20:14;;;;;;;4.43;1.67;;;28.50;52.60;;;;;;5041637;28;20381;-82
2023/07/15 10:22:42;;;;;;;5.88;1.35;;;28.60;52.40;;;;;;5038919;28;20032;-83
2023/07/15 10:25:11;;;;;;;5.55;1.55;;;28.60;52.20;;;;;;5031668;28;20029;-81
2023/07/15 10:27:38;;;;;;;3.65;1.73;;;28.60;52.20;;;;;;5046204;28;20090;-80
2023/07/15 10:30:22;;;;;;;3.60;1.25;;;28.50;52.20;;;;;;5042723;28;20055;-78
2023/07/15 10:33:08;;;;;;;6.95;1.90;;;28.50;52.00;;;;;;5047920;28;20048;-78
2023/07/15 10:35:45;;;;;;;2.65;1.00;;;28.50;51.90;;;;;;5044893;28;20377;-79
2023/07/15 10:38:24;;;;;;;6.53;1.50;;;28.50;52.00;;;;;;5039519;28;20112;-78
2023/07/15 10:40:54;;;;;;;4.75;1.70;;;28.40;52.10;;;;;;5032730;28;20032;-77
2023/07/15 10:43:22;;;;;;;4.32;1.20;;;28.30;52.30;;;;;;5039108;28;20145;-77
2023/07/15 10:45:55;;;;;;;6.20;1.15;;;28.20;52.30;;;;;;5040204;28;20033;-79
2023/07/15 10:48:22;;;;;;;4.25;1.25;;;28.00;52.30;;;;;;5039570;28;20602;-79
2023/07/15 10:50:54;;;;;;;3.13;1.17;;;27.90;52.60;;;;;;5058011;28;20125;-80
2023/07/15 10:53:23;;;;;;;3.00;1.20;;;28.00;52.60;;;;;;5043268;28;20025;-80
2023/07/15 10:55:58;;;;;;;4.32;1.73;;;28.20;52.40;;;;;;5041600;28;20036;-80
2023/07/15 10:58:29;;;;;;;3.50;1.10;;;28.30;52.10;;;;;;5030720;28;20254;-80
2023/07/15 11:01:00;;;;;;;3.58;1.45;;;28.40;52.20;;;;;;5055003;28;20115;-80
2023/07/15 11:03:38;;;;;;;5.55;1.40;;;28.50;52.00;;;;;;5051560;28;20032;-79
2023/07/15 11:06:04;;;;;;;5.30;1.67;;;28.70;51.80;;;;;;5051374;28;20124;-80
2023/07/15 11:08:31;;;;;;;3.28;1.13;;;28.70;51.60;;;;;;5040101;28;20029;-79
2023/07/15 11:11:05;;;;;;;2.53;1.02;;;28.70;51.40;;;;;;5052184;28;20498;-80
2023/07/15 11:13:35;;;;;;;3.70;1.50;;;28.40;51.20;;;;;;5020012;28;20040;-80
2023/07/15 11:16:01;;;;;;;3.78;1.13;;;28.20;51.80;;;;;;5028924;28;20564;-80
2023/07/15 11:18:34;;;;;;;3.25;0.98;;;28.00;51.40;;;;;;5018575;28;20563;-83
2023/07/15 11:21:01;;;;;;;3.92;1.33;;;27.80;51.70;;;;;;5025789;28;20500;-79
2023/07/15 11:23:33;;;;;;;2.40;1.10;;;27.60;51.80;;;;;;5043728;28;20040;-80
2023/07/15 11:26:09;;;;;;;2.92;1.10;;;27.60;51.80;;;;;;5041445;28;20666;-81
2023/07/15 11:28:49;;;;;;;5.57;1.67;;;27.60;51.70;;;;;;5045515;28;20029;-80
2023/07/15 11:31:15;;;;;;;10.85;3.08;;;27.50;51.80;;;;;;5031041;28;20043;-81
2023/07/15 11:33:41;;;;;;;7.35;3.92;;;27.40;52.20;;;;;;5042265;28;20140;-81
2023/07/15 11:36:08;;;;;;;11.00;4.65;;;27.40;52.80;;;;;;5029794;28;20536;-79
2023/07/15 11:38:43;;;;;;;9.70;4.13;;;27.30;53.20;;;;;;5023563;28;20053;-79
2023/07/15 11:41:09;;;;;;;10.73;4.38;;;27.40;53.60;;;;;;5027250;28;20025;-78
2023/07/15 11:43:38;;;;;;;10.18;3.80;;;27.50;53.50;;;;;;5037594;28;20029;-80
2023/07/15 11:46:15;;;;;;;7.85;3.53;;;27.80;53.10;;;;;;5037522;28;20123;-80
2023/07/15 11:48:42;;;;;;;6.57;3.45;;;28.00;52.80;;;;;;5059162;28;20036;-96
2023/07/15 11:51:09;;;;;;;7.40;3.65;;;28.10;52.50;;;;;;5044051;28;20549;-92
2023/07/15 11:53:38;;;;;;;8.18;4.10;;;28.20;52.60;;;;;;5044553;28;20048;-94
2023/07/15 11:56:08;;;;;;;6.70;3.40;;;28.60;52.40;;;;;;5038492;28;20021;-80
2023/07/15 11:58:49;;;;;;;3.90;1.67;;;29.00;51.80;;;;;;5041156;28;20319;-81
2023/07/15 12:01:19;;;;;;;1.90;1.30;;;29.30;50.70;;;;;;5028761;28;20067;-84
2023/07/15 12:03:50;;;;;;;;;;;29.30;50.10;;;;;;5044328;28;20088;-84
2023/07/15 12:06:22;;;;;;;3.30;0.90;;;29.10;50.30;;;;;;5045386;28;20148;-85
2023/07/15 12:09:05;;;;;;;2.55;1.17;;;28.80;50.40;;;;;;5037170;28;20086;-87
2023/07/15 12:11:32;;;;;;;4.75;1.05;;;28.40;49.90;;;;;;5030671;28;20354;-84
2023/07/15 12:14:02;;;;;;;2.10;0.80;;;28.10;50.20;;;;;;5036037;28;21133;-86
2023/07/15 12:16:33;;;;;;;3.95;0.95;;;28.00;50.30;;;;;;5013873;28;20041;-81
2023/07/15 12:19:07;;;;;;;2.00;0.60;;;27.90;50.20;;;;;;5052109;28;20033;-81
2023/07/15 12:21:34;;;;;;;2.28;1.10;;;27.70;49.90;;;;;;5051880;28;20495;-82
2023/07/15 12:24:00;;;;;;;2.55;0.90;;;27.60;50.30;;;;;;5050953;28;20042;-82
2023/07/15 12:26:28;;;;;;;2.85;0.77;;;27.40;49.60;;;;;;5039111;28;20071;-81
2023/07/15 12:28:54;;;;;;;4.50;1.40;;;27.30;49.70;;;;;;5047120;28;20040;-80
2023/07/15 12:31:21;;;;;;;2.67;1.00;;;27.30;49.90;;;;;;5023317;28;20028;-82
2023/07/15 12:33:47;;;;;;;1.45;0.57;;;27.40;50.20;;;;;;5048703;28;20160;-81
2023/07/15 12:36:17;;;;;;;4.07;0.73;;;27.30;50.40;;;;;;5045686;28;20036;-81
2023/07/15 12:38:44;;;;;;;1.98;0.68;;;27.20;50.50;;;;;;5046115;28;20036;-82
2023/07/15 12:41:13;;;;;;;1.58;0.63;;;27.20;50.70;;;;;;5050815;28;20514;-85
2023/07/15 12:43:42;;;;;;;0.68;0.40;;;27.20;50.80;;;;;;5040446;28;20064;-80
2023/07/15 12:46:08;;;;;;;4.25;0.90;;;27.20;50.70;;;;;;5035146;28;20040;-80
2023/07/15 12:48:36;;;;;;;1.40;0.57;;;27.10;50.60;;;;;;5032004;28;20037;-81
2023/07/15 12:51:02;;;;;;;2.70;0.82;;;27.00;50.70;;;;;;5031402;28;20488;-82
2023/07/15 12:53:28;;;;;;;1.27;0.50;;;26.90;50.80;;;;;;5029991;28;20037;-79
2023/07/15 12:55:54;;;;;;;1.10;0.68;;;26.80;50.80;;;;;;5043048;28;20036;-79